sensor_id;sensor_type;location;lat;lon;timestamp;P1;durP1;ratioP1;P2;durP2;ratioP2
920;SDS011;447;51.332;6.778;2023-03-01T00:00:20;7.95;;;5.05;;
920;SDS011;447;51.332;6.778;2023-03-01T00:02:51;6.65;;;4.45;;
920;SDS011;447;51.332;6.778;2023-03-01T00:05:19;8.95;;;5.15;;
920;SDS011;447;51.332;6.778;2023-03-01T00:07:45;5.60;;;4.70;;
920;SDS011;447;51.332;6.778;2023-03-01T00:10:13;6.20;;;5.63;;
920;SDS011;447;51.332;6.778;2023-03-01T00:12:41;7.22;;;5.40;;
920;SDS011;447;51.332;6.778;2023-03-01T00:15:09;7.32;;;5.70;;
920;SDS011;447;51.332;6.778;2023-03-01T00:17:38;7.25;;;4.60;;
920;SDS011;447;51.332;6.778;2023-03-01T00:20:04;5.50;;;4.85;;
920;SDS011;447;51.332;6.778;2023-03-01T00:22:35;6.88;;;5.93;;
920;SDS011;447;51.332;6.778;2023-03-01T00:25:04;12.70;;;5.35;;
920;SDS011;447;51.332;6.778;2023-03-01T00:27:31;7.68;;;5.25;;
920;SDS011;447;51.332;6.778;2023-03-01T00:29:57;5.83;;;5.20;;
920;SDS011;447;51.332;6.778;2023-03-01T00:32:23;5.93;;;4.75;;
920;SDS011;447;51.332;6.778;2023-03-01T00:34:51;7.28;;;5.10;;
920;SDS011;447;51.332;6.778;2023-03-01T00:37:22;6.60;;;5.43;;
920;SDS011;447;51.332;6.778;2023-03-01T00:39:51;6.32;;;5.10;;
920;SDS011;447;51.332;6.778;2023-03-01T00:42:17;6.10;;;5.03;;
920;SDS011;447;51.332;6.778;2023-03-01T00:44:49;8.00;;;5.57;;
920;SDS011;447;51.332;6.778;2023-03-01T00:47:15;7.57;;;5.00;;
920;SDS011;447;51.332;6.778;2023-03-01T00:49:41;6.13;;;5.00;;
920;SDS011;447;51.332;6.778;2023-03-01T00:52:09;5.95;;;4.75;;
920;SDS011;447;51.332;6.778;2023-03-01T00:54:38;6.05;;;4.60;;
920;SDS011;447;51.332;6.778;2023-03-01T00:57:06;5.97;;;5.00;;
920;SDS011;447;51.332;6.778;2023-03-01T00:59:34;5.72;;;5.00;;
920;SDS011;447;51.332;6.778;2023-03-01T01:02:00;7.73;;;5.10;;
920;SDS011;447;51.332;6.778;2023-03-01T01:04:28;6.90;;;5.65;;
920;SDS011;447;51.332;6.778;2023-03-01T01:06:54;7.80;;;5.30;;
920;SDS011;447;51.332;6.778;2023-03-01T01:09:20;5.95;;;5.35;;
920;SDS011;447;51.332;6.778;2023-03-01T01:11:47;7.60;;;5.57;;
920;SDS011;447;51.332;6.778;2023-03-01T01:14:17;10.10;;;5.32;;
920;SDS011;447;51.332;6.778;2023-03-01T01:16:44;7.88;;;5.43;;
920;SDS011;447;51.332;6.778;2023-03-01T01:19:10;6.40;;;5.80;;
920;SDS011;447;51.332;6.778;2023-03-01T01:21:37;7.57;;;6.18;;
920;SDS011;447;51.332;6.778;2023-03-01T01:24:08;7.25;;;5.65;;
920;SDS011;447;51.332;6.778;2023-03-01T01:26:39;7.00;;;5.45;;
920;SDS011;447;51.332;6.778;2023-03-01T01:29:05;6.25;;;5.13;;
920;SDS011;447;51.332;6.778;2023-03-01T01:31:34;6.93;;;6.15;;
920;SDS011;447;51.332;6.778;2023-03-01T01:34:02;6.47;;;5.60;;
920;SDS011;447;51.332;6.778;2023-03-01T01:36:32;7.45;;;6.13;;
920;SDS011;447;51.332;6.778;2023-03-01T01:38:59;6.90;;;5.10;;
920;SDS011;447;51.332;6.778;2023-03-01T01:41:26;8.10;;;5.40;;
920;SDS011;447;51.332;6.778;2023-03-01T01:46:39;7.15;;;6.13;;
920;SDS011;447;51.332;6.778;2023-03-01T01:52:26;8.65;;;5.75;;
920;SDS011;447;51.332;6.778;2023-03-01T01:54:57;6.20;;;5.50;;
920;SDS011;447;51.332;6.778;2023-03-01T01:57:37;9.38;;;5.80;;
920;SDS011;447;51.332;6.778;2023-03-01T02:00:12;6.65;;;5.72;;
920;SDS011;447;51.332;6.778;2023-03-01T02:02:40;9.15;;;5.50;;
920;SDS011;447;51.332;6.778;2023-03-01T02:05:16;6.93;;;5.80;;
920;SDS011;447;51.332;6.778;2023-03-01T02:07:51;7.38;;;5.60;;
920;SDS011;447;51.332;6.778;2023-03-01T02:10:19;7.95;;;5.80;;
920;SDS011;447;51.332;6.778;2023-03-01T02:12:46;7.53;;;5.80;;
920;SDS011;447;51.332;6.778;2023-03-01T02:15:13;6.97;;;5.28;;
920;SDS011;447;51.332;6.778;2023-03-01T02:17:41;7.60;;;5.50;;
920;SDS011;447;51.332;6.778;2023-03-01T02:22:41;6.78;;;5.60;;
920;SDS011;447;51.332;6.778;2023-03-01T02:30:34;6.15;;;5.47;;
920;SDS011;447;51.332;6.778;2023-03-01T02:33:03;6.30;;;5.18;;
920;SDS011;447;51.332;6.778;2023-03-01T02:35:30;6.60;;;5.18;;
920;SDS011;447;51.332;6.778;2023-03-01T02:38:01;8.15;;;5.80;;
920;SDS011;447;51.332;6.778;2023-03-01T02:40:29;8.27;;;6.03;;
920;SDS011;447;51.332;6.778;2023-03-01T02:42:57;7.20;;;5.95;;
920;SDS011;447;51.332;6.778;2023-03-01T02:45:26;9.25;;;6.13;;
920;SDS011;447;51.332;6.778;2023-03-01T02:47:55;9.32;;;5.93;;
920;SDS011;447;51.332;6.778;2023-03-01T02:55:40;8.45;;;5.90;;
920;SDS011;447;51.332;6.778;2023-03-01T02:58:13;8.90;;;6.22;;
920;SDS011;447;51.332;6.778;2023-03-01T03:00:44;8.18;;;6.13;;
920;SDS011;447;51.332;6.778;2023-03-01T03:03:14;7.10;;;6.10;;
920;SDS011;447;51.332;6.778;2023-03-01T03:05:42;6.80;;;5.75;;
920;SDS011;447;51.332;6.778;2023-03-01T03:08:08;6.72;;;5.50;;
920;SDS011;447;51.332;6.778;2023-03-01T03:10:38;7.57;;;6.32;;
920;SDS011;447;51.332;6.778;2023-03-01T03:13:06;7.88;;;6.55;;
920;SDS011;447;51.332;6.778;2023-03-01T03:15:34;9.75;;;6.10;;
920;SDS011;447;51.332;6.778;2023-03-01T03:18:04;9.45;;;6.32;;
920;SDS011;447;51.332;6.778;2023-03-01T03:20:34;6.15;;;5.55;;
920;SDS011;447;51.332;6.778;2023-03-01T03:23:06;7.80;;;6.20;;
920;SDS011;447;51.332;6.778;2023-03-01T03:25:33;10.30;;;6.60;;
920;SDS011;447;51.332;6.778;2023-03-01T03:28:05;8.18;;;6.47;;
920;SDS011;447;51.332;6.778;2023-03-01T03:30:35;8.70;;;6.57;;
920;SDS011;447;51.332;6.778;2023-03-01T03:33:06;8.98;;;5.90;;
920;SDS011;447;51.332;6.778;2023-03-01T03:35:39;9.23;;;6.68;;
920;SDS011;447;51.332;6.778;2023-03-01T03:38:11;9.27;;;6.85;;
920;SDS011;447;51.332;6.778;2023-03-01T03:43:15;6.82;;;5.97;;
920;SDS011;447;51.332;6.778;2023-03-01T03:45:46;7.72;;;5.80;;
920;SDS011;447;51.332;6.778;2023-03-01T03:48:13;7.50;;;6.25;;
920;SDS011;447;51.332;6.778;2023-03-01T03:50:40;5.50;;;5.00;;
920;SDS011;447;51.332;6.778;2023-03-01T03:53:07;6.97;;;6.03;;
920;SDS011;447;51.332;6.778;2023-03-01T03:55:35;6.43;;;5.65;;
920;SDS011;447;51.332;6.778;2023-03-01T03:58:05;8.50;;;6.13;;
920;SDS011;447;51.332;6.778;2023-03-01T04:00:35;6.57;;;5.88;;
920;SDS011;447;51.332;6.778;2023-03-01T04:03:06;11.15;;;6.38;;
920;SDS011;447;51.332;6.778;2023-03-01T04:05:35;7.78;;;6.05;;
920;SDS011;447;51.332;6.778;2023-03-01T04:08:02;7.43;;;6.18;;
920;SDS011;447;51.332;6.778;2023-03-01T04:10:29;7.03;;;6.20;;
920;SDS011;447;51.332;6.778;2023-03-01T04:13:02;7.72;;;6.40;;
920;SDS011;447;51.332;6.778;2023-03-01T04:15:28;8.88;;;6.50;;
920;SDS011;447;51.332;6.778;2023-03-01T04:17:55;8.90;;;6.45;;
920;SDS011;447;51.332;6.778;2023-03-01T04:20:23;7.15;;;5.50;;
920;SDS011;447;51.332;6.778;2023-03-01T04:23:07;6.95;;;6.20;;
920;SDS011;447;51.332;6.778;2023-03-01T04:25:53;7.50;;;6.18;;
920;SDS011;447;51.332;6.778;2023-03-01T04:28:26;7.30;;;6.40;;
920;SDS011;447;51.332;6.778;2023-03-01T04:31:12;7.45;;;6.20;;
920;SDS011;447;51.332;6.778;2023-03-01T04:33:41;6.32;;;5.72;;
920;SDS011;447;51.332;6.778;2023-03-01T04:36:12;8.10;;;6.10;;
920;SDS011;447;51.332;6.778;2023-03-01T04:38:40;9.63;;;6.22;;
920;SDS011;447;51.332;6.778;2023-03-01T04:41:12;7.45;;;6.20;;
920;SDS011;447;51.332;6.778;2023-03-01T04:43:42;11.82;;;6.53;;
920;SDS011;447;51.332;6.778;2023-03-01T04:46:14;10.57;;;7.28;;
920;SDS011;447;51.332;6.778;2023-03-01T04:48:42;10.60;;;6.50;;
920;SDS011;447;51.332;6.778;2023-03-01T04:51:12;8.73;;;5.78;;
920;SDS011;447;51.332;6.778;2023-03-01T04:53:38;7.88;;;6.30;;
920;SDS011;447;51.332;6.778;2023-03-01T04:56:11;6.88;;;5.90;;
920;SDS011;447;51.332;6.778;2023-03-01T04:58:41;9.40;;;6.47;;
920;SDS011;447;51.332;6.778;2023-03-01T05:01:13;8.73;;;6.78;;
920;SDS011;447;51.332;6.778;2023-03-01T05:03:48;8.05;;;6.75;;
920;SDS011;447;51.332;6.778;2023-03-01T05:06:17;6.95;;;5.93;;
920;SDS011;447;51.332;6.778;2023-03-01T05:08:49;9.82;;;6.60;;
920;SDS011;447;51.332;6.778;2023-03-01T05:11:20;9.75;;;7.18;;
920;SDS011;447;51.332;6.778;2023-03-01T05:13:45;7.82;;;6.72;;
920;SDS011;447;51.332;6.778;2023-03-01T05:16:18;8.80;;;6.90;;
920;SDS011;447;51.332;6.778;2023-03-01T05:18:45;8.68;;;7.35;;
920;SDS011;447;51.332;6.778;2023-03-01T05:21:12;8.90;;;7.25;;
920;SDS011;447;51.332;6.778;2023-03-01T05:23:42;6.57;;;5.40;;
920;SDS011;447;51.332;6.778;2023-03-01T05:26:09;8.70;;;6.90;;
920;SDS011;447;51.332;6.778;2023-03-01T05:28:40;9.48;;;6.88;;
920;SDS011;447;51.332;6.778;2023-03-01T05:31:06;8.83;;;6.83;;
920;SDS011;447;51.332;6.778;2023-03-01T05:33:38;8.35;;;6.88;;
920;SDS011;447;51.332;6.778;2023-03-01T05:36:07;9.95;;;6.63;;
920;SDS011;447;51.332;6.778;2023-03-01T05:38:39;8.05;;;6.50;;
920;SDS011;447;51.332;6.778;2023-03-01T05:41:04;8.00;;;6.30;;
920;SDS011;447;51.332;6.778;2023-03-01T05:43:41;8.30;;;6.28;;
920;SDS011;447;51.332;6.778;2023-03-01T05:46:08;7.43;;;5.97;;
920;SDS011;447;51.332;6.778;2023-03-01T05:48:38;7.90;;;6.88;;
920;SDS011;447;51.332;6.778;2023-03-01T05:51:04;6.97;;;6.00;;
920;SDS011;447;51.332;6.778;2023-03-01T05:53:30;8.20;;;6.28;;
920;SDS011;447;51.332;6.778;2023-03-01T05:56:00;7.00;;;6.30;;
920;SDS011;447;51.332;6.778;2023-03-01T05:58:29;7.65;;;6.85;;
920;SDS011;447;51.332;6.778;2023-03-01T06:00:57;8.88;;;6.68;;
920;SDS011;447;51.332;6.778;2023-03-01T06:03:23;7.75;;;6.20;;
920;SDS011;447;51.332;6.778;2023-03-01T06:05:49;8.03;;;7.10;;
920;SDS011;447;51.332;6.778;2023-03-01T06:08:17;6.65;;;5.68;;
920;SDS011;447;51.332;6.778;2023-03-01T06:10:47;9.20;;;7.18;;
920;SDS011;447;51.332;6.778;2023-03-01T06:13:13;7.70;;;6.80;;
920;SDS011;447;51.332;6.778;2023-03-01T06:15:39;7.60;;;6.47;;
920;SDS011;447;51.332;6.778;2023-03-01T06:18:05;10.52;;;7.05;;
920;SDS011;447;51.332;6.778;2023-03-01T06:20:31;11.27;;;7.67;;
920;SDS011;447;51.332;6.778;2023-03-01T06:22:59;8.15;;;6.35;;
920;SDS011;447;51.332;6.778;2023-03-01T06:25:25;8.77;;;6.85;;
920;SDS011;447;51.332;6.778;2023-03-01T06:27:52;8.55;;;6.85;;
920;SDS011;447;51.332;6.778;2023-03-01T06:30:19;7.30;;;5.60;;
920;SDS011;447;51.332;6.778;2023-03-01T06:32:46;8.60;;;6.85;;
920;SDS011;447;51.332;6.778;2023-03-01T06:35:16;8.30;;;7.28;;
920;SDS011;447;51.332;6.778;2023-03-01T06:37:46;8.32;;;6.60;;
920;SDS011;447;51.332;6.778;2023-03-01T06:40:14;8.10;;;6.25;;
920;SDS011;447;51.332;6.778;2023-03-01T06:42:41;8.45;;;7.13;;
920;SDS011;447;51.332;6.778;2023-03-01T06:45:15;8.00;;;6.68;;
920;SDS011;447;51.332;6.778;2023-03-01T06:47:42;9.82;;;6.65;;
920;SDS011;447;51.332;6.778;2023-03-01T06:50:10;9.93;;;7.20;;
920;SDS011;447;51.332;6.778;2023-03-01T06:52:37;12.35;;;7.57;;
920;SDS011;447;51.332;6.778;2023-03-01T06:55:06;8.65;;;7.18;;
920;SDS011;447;51.332;6.778;2023-03-01T06:57:35;8.05;;;7.07;;
920;SDS011;447;51.332;6.778;2023-03-01T07:00:06;12.70;;;7.50;;
920;SDS011;447;51.332;6.778;2023-03-01T07:02:33;11.05;;;7.88;;
920;SDS011;447;51.332;6.778;2023-03-01T07:05:01;8.73;;;6.77;;
920;SDS011;447;51.332;6.778;2023-03-01T07:07:27;9.95;;;7.40;;
920;SDS011;447;51.332;6.778;2023-03-01T07:09:53;10.70;;;6.70;;
920;SDS011;447;51.332;6.778;2023-03-01T07:12:19;10.33;;;7.73;;
920;SDS011;447;51.332;6.778;2023-03-01T07:14:48;8.33;;;7.10;;
920;SDS011;447;51.332;6.778;2023-03-01T07:17:16;10.65;;;7.65;;
920;SDS011;447;51.332;6.778;2023-03-01T07:19:44;9.95;;;7.20;;
920;SDS011;447;51.332;6.778;2023-03-01T07:22:10;11.80;;;7.68;;
920;SDS011;447;51.332;6.778;2023-03-01T07:24:37;11.20;;;8.13;;
920;SDS011;447;51.332;6.778;2023-03-01T07:27:07;7.85;;;7.05;;
920;SDS011;447;51.332;6.778;2023-03-01T07:29:40;9.55;;;8.18;;
920;SDS011;447;51.332;6.778;2023-03-01T07:32:09;11.20;;;7.60;;
920;SDS011;447;51.332;6.778;2023-03-01T07:34:38;10.43;;;7.05;;
920;SDS011;447;51.332;6.778;2023-03-01T07:37:04;8.70;;;7.20;;
920;SDS011;447;51.332;6.778;2023-03-01T07:39:32;10.20;;;7.25;;
920;SDS011;447;51.332;6.778;2023-03-01T07:42:00;9.40;;;7.82;;
920;SDS011;447;51.332;6.778;2023-03-01T07:44:29;10.82;;;8.02;;
920;SDS011;447;51.332;6.778;2023-03-01T07:46:55;10.55;;;7.45;;
920;SDS011;447;51.332;6.778;2023-03-01T07:49:25;9.25;;;7.30;;
920;SDS011;447;51.332;6.778;2023-03-01T07:51:56;11.13;;;7.57;;
920;SDS011;447;51.332;6.778;2023-03-01T07:54:24;7.88;;;6.75;;
920;SDS011;447;51.332;6.778;2023-03-01T07:56:51;10.65;;;7.95;;
920;SDS011;447;51.332;6.778;2023-03-01T07:59:22;11.27;;;8.65;;
920;SDS011;447;51.332;6.778;2023-03-01T08:01:54;9.98;;;7.80;;
920;SDS011;447;51.332;6.778;2023-03-01T08:04:22;8.95;;;7.55;;
920;SDS011;447;51.332;6.778;2023-03-01T08:06:50;10.40;;;7.32;;
920;SDS011;447;51.332;6.778;2023-03-01T08:09:16;13.70;;;8.93;;
920;SDS011;447;51.332;6.778;2023-03-01T08:11:42;9.90;;;7.93;;
920;SDS011;447;51.332;6.778;2023-03-01T08:14:10;12.00;;;7.20;;
920;SDS011;447;51.332;6.778;2023-03-01T08:16:36;11.43;;;7.97;;
920;SDS011;447;51.332;6.778;2023-03-01T08:19:06;10.60;;;7.93;;
920;SDS011;447;51.332;6.778;2023-03-01T08:21:35;9.98;;;8.07;;
920;SDS011;447;51.332;6.778;2023-03-01T08:24:02;9.88;;;7.35;;
920;SDS011;447;51.332;6.778;2023-03-01T08:26:29;15.18;;;8.00;;
920;SDS011;447;51.332;6.778;2023-03-01T08:28:56;10.85;;;8.63;;
920;SDS011;447;51.332;6.778;2023-03-01T08:31:31;9.70;;;7.70;;
920;SDS011;447;51.332;6.778;2023-03-01T08:34:01;9.88;;;7.80;;
920;SDS011;447;51.332;6.778;2023-03-01T08:36:30;11.30;;;8.00;;
920;SDS011;447;51.332;6.778;2023-03-01T08:38:57;10.60;;;8.38;;
920;SDS011;447;51.332;6.778;2023-03-01T08:41:24;11.18;;;7.75;;
920;SDS011;447;51.332;6.778;2023-03-01T08:43:50;12.38;;;8.70;;
920;SDS011;447;51.332;6.778;2023-03-01T08:46:18;8.85;;;7.78;;
920;SDS011;447;51.332;6.778;2023-03-01T08:48:44;9.87;;;6.97;;
920;SDS011;447;51.332;6.778;2023-03-01T08:51:13;11.35;;;8.50;;
920;SDS011;447;51.332;6.778;2023-03-01T08:53:43;8.43;;;7.07;;
920;SDS011;447;51.332;6.778;2023-03-01T08:56:12;11.52;;;8.68;;
920;SDS011;447;51.332;6.778;2023-03-01T08:58:37;11.80;;;8.10;;
920;SDS011;447;51.332;6.778;2023-03-01T09:01:08;12.18;;;8.38;;
920;SDS011;447;51.332;6.778;2023-03-01T09:03:36;11.57;;;8.48;;
920;SDS011;447;51.332;6.778;2023-03-01T09:06:03;11.02;;;7.93;;
920;SDS011;447;51.332;6.778;2023-03-01T09:08:30;11.00;;;7.90;;
920;SDS011;447;51.332;6.778;2023-03-01T09:11:01;13.15;;;8.60;;
920;SDS011;447;51.332;6.778;2023-03-01T09:13:29;12.40;;;8.55;;
920;SDS011;447;51.332;6.778;2023-03-01T09:15:58;11.07;;;8.40;;
920;SDS011;447;51.332;6.778;2023-03-01T09:18:25;12.02;;;7.80;;
920;SDS011;447;51.332;6.778;2023-03-01T09:20:51;10.83;;;8.10;;
920;SDS011;447;51.332;6.778;2023-03-01T09:23:27;11.07;;;8.50;;
920;SDS011;447;51.332;6.778;2023-03-01T09:25:56;12.73;;;7.95;;
920;SDS011;447;51.332;6.778;2023-03-01T09:28:22;10.67;;;8.60;;
920;SDS011;447;51.332;6.778;2023-03-01T09:30:48;11.03;;;8.03;;
920;SDS011;447;51.332;6.778;2023-03-01T09:33:19;11.77;;;8.05;;
920;SDS011;447;51.332;6.778;2023-03-01T09:35:45;11.07;;;8.18;;
920;SDS011;447;51.332;6.778;2023-03-01T09:38:13;10.98;;;8.15;;
920;SDS011;447;51.332;6.778;2023-03-01T09:40:43;12.30;;;9.10;;
920;SDS011;447;51.332;6.778;2023-03-01T09:43:25;9.95;;;7.95;;
920;SDS011;447;51.332;6.778;2023-03-01T09:46:08;11.00;;;8.43;;
920;SDS011;447;51.332;6.778;2023-03-01T09:49:01;12.32;;;9.05;;
920;SDS011;447;51.332;6.778;2023-03-01T09:51:32;14.25;;;8.20;;
920;SDS011;447;51.332;6.778;2023-03-01T09:54:03;10.88;;;8.15;;
920;SDS011;447;51.332;6.778;2023-03-01T09:56:36;11.15;;;7.95;;
920;SDS011;447;51.332;6.778;2023-03-01T09:59:33;10.52;;;8.00;;
920;SDS011;447;51.332;6.778;2023-03-01T10:05:31;9.63;;;7.53;;
920;SDS011;447;51.332;6.778;2023-03-01T10:10:53;11.60;;;7.97;;
920;SDS011;447;51.332;6.778;2023-03-01T10:16:24;11.93;;;8.23;;
920;SDS011;447;51.332;6.778;2023-03-01T10:19:10;9.40;;;7.75;;
920;SDS011;447;51.332;6.778;2023-03-01T10:21:43;13.57;;;9.00;;
920;SDS011;447;51.332;6.778;2023-03-01T10:24:16;11.25;;;8.50;;
920;SDS011;447;51.332;6.778;2023-03-01T10:26:55;11.23;;;8.68;;
920;SDS011;447;51.332;6.778;2023-03-01T10:29:30;11.55;;;7.95;;
920;SDS011;447;51.332;6.778;2023-03-01T10:32:06;10.68;;;7.70;;
920;SDS011;447;51.332;6.778;2023-03-01T10:34:36;12.05;;;9.15;;
920;SDS011;447;51.332;6.778;2023-03-01T10:37:09;11.63;;;8.32;;
920;SDS011;447;51.332;6.778;2023-03-01T10:39:36;11.75;;;8.18;;
920;SDS011;447;51.332;6.778;2023-03-01T10:47:23;10.15;;;7.60;;
920;SDS011;447;51.332;6.778;2023-03-01T10:52:28;11.10;;;8.18;;
920;SDS011;447;51.332;6.778;2023-03-01T10:54:59;11.48;;;8.50;;
920;SDS011;447;51.332;6.778;2023-03-01T10:57:49;11.00;;;7.90;;
920;SDS011;447;51.332;6.778;2023-03-01T11:00:45;11.27;;;8.60;;
920;SDS011;447;51.332;6.778;2023-03-01T11:03:23;10.63;;;7.75;;
920;SDS011;447;51.332;6.778;2023-03-01T11:08:51;10.32;;;7.78;;
920;SDS011;447;51.332;6.778;2023-03-01T11:11:21;10.20;;;7.57;;
920;SDS011;447;51.332;6.778;2023-03-01T11:13:54;9.93;;;7.00;;
920;SDS011;447;51.332;6.778;2023-03-01T11:16:25;10.32;;;7.65;;
920;SDS011;447;51.332;6.778;2023-03-01T11:18:57;13.50;;;7.57;;
920;SDS011;447;51.332;6.778;2023-03-01T11:21:28;10.15;;;6.97;;
920;SDS011;447;51.332;6.778;2023-03-01T11:23:56;10.20;;;7.15;;
920;SDS011;447;51.332;6.778;2023-03-01T11:26:25;8.45;;;6.10;;
920;SDS011;447;51.332;6.778;2023-03-01T11:28:56;10.75;;;7.68;;
920;SDS011;447;51.332;6.778;2023-03-01T11:31:28;9.98;;;7.00;;
920;SDS011;447;51.332;6.778;2023-03-01T11:36:44;11.45;;;8.07;;
920;SDS011;447;51.332;6.778;2023-03-01T11:39:27;8.40;;;6.60;;
920;SDS011;447;51.332;6.778;2023-03-01T11:45:24;7.47;;;6.22;;
920;SDS011;447;51.332;6.778;2023-03-01T11:47:59;9.48;;;7.22;;
920;SDS011;447;51.332;6.778;2023-03-01T11:53:31;9.73;;;6.75;;
920;SDS011;447;51.332;6.778;2023-03-01T12:21:05;8.55;;;6.07;;
920;SDS011;447;51.332;6.778;2023-03-01T12:26:35;9.10;;;6.75;;
920;SDS011;447;51.332;6.778;2023-03-01T12:29:16;8.07;;;6.88;;
920;SDS011;447;51.332;6.778;2023-03-01T12:37:44;10.05;;;6.75;;
920;SDS011;447;51.332;6.778;2023-03-01T12:40:27;8.85;;;6.78;;
920;SDS011;447;51.332;6.778;2023-03-01T12:51:37;6.55;;;5.80;;
920;SDS011;447;51.332;6.778;2023-03-01T12:54:15;9.98;;;7.40;;
920;SDS011;447;51.332;6.778;2023-03-01T12:56:50;6.78;;;5.50;;
920;SDS011;447;51.332;6.778;2023-03-01T13:02:20;12.65;;;6.68;;
920;SDS011;447;51.332;6.778;2023-03-01T13:07:39;8.70;;;6.50;;
920;SDS011;447;51.332;6.778;2023-03-01T13:12:46;14.15;;;7.13;;
920;SDS011;447;51.332;6.778;2023-03-01T13:15:36;7.80;;;5.97;;
920;SDS011;447;51.332;6.778;2023-03-01T13:18:04;6.80;;;5.85;;
920;SDS011;447;51.332;6.778;2023-03-01T13:20:48;6.80;;;5.93;;
920;SDS011;447;51.332;6.778;2023-03-01T13:28:39;8.70;;;5.95;;
920;SDS011;447;51.332;6.778;2023-03-01T13:33:52;9.27;;;6.67;;
920;SDS011;447;51.332;6.778;2023-03-01T13:46:45;13.70;;;6.68;;
920;SDS011;447;51.332;6.778;2023-03-01T13:49:20;7.93;;;6.55;;
920;SDS011;447;51.332;6.778;2023-03-01T13:51:48;7.32;;;5.72;;
920;SDS011;447;51.332;6.778;2023-03-01T13:54:16;9.68;;;6.18;;
920;SDS011;447;51.332;6.778;2023-03-01T13:57:12;7.28;;;6.10;;
920;SDS011;447;51.332;6.778;2023-03-01T13:59:48;8.82;;;5.90;;
920;SDS011;447;51.332;6.778;2023-03-01T14:02:16;9.10;;;6.15;;
920;SDS011;447;51.332;6.778;2023-03-01T14:04:42;7.72;;;6.13;;
920;SDS011;447;51.332;6.778;2023-03-01T14:09:52;8.77;;;6.32;;
920;SDS011;447;51.332;6.778;2023-03-01T14:12:24;6.95;;;5.68;;
920;SDS011;447;51.332;6.778;2023-03-01T14:20:00;9.48;;;6.20;;
920;SDS011;447;51.332;6.778;2023-03-01T14:22:34;6.47;;;5.45;;
920;SDS011;447;51.332;6.778;2023-03-01T14:25:05;7.50;;;6.10;;
920;SDS011;447;51.332;6.778;2023-03-01T14:27:44;8.82;;;6.28;;
920;SDS011;447;51.332;6.778;2023-03-01T14:30:19;7.82;;;5.72;;
920;SDS011;447;51.332;6.778;2023-03-01T14:32:57;8.65;;;5.75;;
920;SDS011;447;51.332;6.778;2023-03-01T14:35:29;9.27;;;5.80;;
920;SDS011;447;51.332;6.778;2023-03-01T14:37:57;8.02;;;5.78;;
920;SDS011;447;51.332;6.778;2023-03-01T14:42:51;8.35;;;6.50;;
920;SDS011;447;51.332;6.778;2023-03-01T14:45:21;9.18;;;5.40;;
920;SDS011;447;51.332;6.778;2023-03-01T14:47:53;9.52;;;5.85;;
920;SDS011;447;51.332;6.778;2023-03-01T14:50:27;9.13;;;5.90;;
920;SDS011;447;51.332;6.778;2023-03-01T14:52:58;7.78;;;6.22;;
920;SDS011;447;51.332;6.778;2023-03-01T14:55:41;8.23;;;5.88;;
920;SDS011;447;51.332;6.778;2023-03-01T14:58:12;8.63;;;6.13;;
920;SDS011;447;51.332;6.778;2023-03-01T15:00:42;10.95;;;6.65;;
920;SDS011;447;51.332;6.778;2023-03-01T15:03:23;9.68;;;5.90;;
920;SDS011;447;51.332;6.778;2023-03-01T15:06:02;11.32;;;7.13;;
920;SDS011;447;51.332;6.778;2023-03-01T15:08:30;7.43;;;5.78;;
920;SDS011;447;51.332;6.778;2023-03-01T15:11:04;10.07;;;7.00;;
920;SDS011;447;51.332;6.778;2023-03-01T15:13:52;9.30;;;6.38;;
920;SDS011;447;51.332;6.778;2023-03-01T15:16:26;7.90;;;6.35;;
920;SDS011;447;51.332;6.778;2023-03-01T15:19:00;7.05;;;5.88;;
920;SDS011;447;51.332;6.778;2023-03-01T15:21:37;7.32;;;5.43;;
920;SDS011;447;51.332;6.778;2023-03-01T15:24:46;12.30;;;6.93;;
920;SDS011;447;51.332;6.778;2023-03-01T15:27:03;8.48;;;6.35;;
920;SDS011;447;51.332;6.778;2023-03-01T15:29:32;9.00;;;7.03;;
920;SDS011;447;51.332;6.778;2023-03-01T15:32:24;9.23;;;6.47;;
920;SDS011;447;51.332;6.778;2023-03-01T15:34:58;9.05;;;6.30;;
920;SDS011;447;51.332;6.778;2023-03-01T15:40:24;9.57;;;7.25;;
920;SDS011;447;51.332;6.778;2023-03-01T15:43:05;10.55;;;6.68;;
920;SDS011;447;51.332;6.778;2023-03-01T15:45:57;10.32;;;6.53;;
920;SDS011;447;51.332;6.778;2023-03-01T15:48:23;10.07;;;7.10;;
920;SDS011;447;51.332;6.778;2023-03-01T15:50:54;8.18;;;6.20;;
920;SDS011;447;51.332;6.778;2023-03-01T15:53:21;10.93;;;6.28;;
920;SDS011;447;51.332;6.778;2023-03-01T15:55:47;10.15;;;6.47;;
920;SDS011;447;51.332;6.778;2023-03-01T15:58:17;6.97;;;5.50;;
920;SDS011;447;51.332;6.778;2023-03-01T16:00:47;7.90;;;6.10;;
920;SDS011;447;51.332;6.778;2023-03-01T16:03:14;9.45;;;6.60;;
920;SDS011;447;51.332;6.778;2023-03-01T16:05:47;8.70;;;6.00;;
920;SDS011;447;51.332;6.778;2023-03-01T16:08:17;8.45;;;6.35;;
920;SDS011;447;51.332;6.778;2023-03-01T16:10:43;9.43;;;6.10;;
920;SDS011;447;51.332;6.778;2023-03-01T16:13:15;8.90;;;6.95;;
920;SDS011;447;51.332;6.778;2023-03-01T16:15:41;9.10;;;6.53;;
920;SDS011;447;51.332;6.778;2023-03-01T16:18:09;8.38;;;5.90;;
920;SDS011;447;51.332;6.778;2023-03-01T16:20:37;7.90;;;5.70;;
920;SDS011;447;51.332;6.778;2023-03-01T16:23:06;8.88;;;5.88;;
920;SDS011;447;51.332;6.778;2023-03-01T16:25:36;8.93;;;6.50;;
920;SDS011;447;51.332;6.778;2023-03-01T16:28:05;9.10;;;6.45;;
920;SDS011;447;51.332;6.778;2023-03-01T16:30:34;8.30;;;6.13;;
920;SDS011;447;51.332;6.778;2023-03-01T16:33:00;8.93;;;6.80;;
920;SDS011;447;51.332;6.778;2023-03-01T16:35:27;9.98;;;6.85;;
920;SDS011;447;51.332;6.778;2023-03-01T16:37:58;7.72;;;6.35;;
920;SDS011;447;51.332;6.778;2023-03-01T16:40:28;7.53;;;6.00;;
920;SDS011;447;51.332;6.778;2023-03-01T16:42:55;7.72;;;5.90;;
920;SDS011;447;51.332;6.778;2023-03-01T16:45:28;7.55;;;5.72;;
920;SDS011;447;51.332;6.778;2023-03-01T16:48:01;8.70;;;5.80;;
920;SDS011;447;51.332;6.778;2023-03-01T16:50:28;7.10;;;5.85;;
920;SDS011;447;51.332;6.778;2023-03-01T16:52:56;9.80;;;6.10;;
920;SDS011;447;51.332;6.778;2023-03-01T16:55:25;8.05;;;6.80;;
920;SDS011;447;51.332;6.778;2023-03-01T16:57:53;9.98;;;7.70;;
920;SDS011;447;51.332;6.778;2023-03-01T17:00:24;9.07;;;6.97;;
920;SDS011;447;51.332;6.778;2023-03-01T17:02:53;9.27;;;6.70;;
920;SDS011;447;51.332;6.778;2023-03-01T17:05:19;11.63;;;6.82;;
920;SDS011;447;51.332;6.778;2023-03-01T17:07:48;7.88;;;5.85;;
920;SDS011;447;51.332;6.778;2023-03-01T17:10:17;10.45;;;6.50;;
920;SDS011;447;51.332;6.778;2023-03-01T17:12:43;10.52;;;7.68;;
920;SDS011;447;51.332;6.778;2023-03-01T17:15:09;8.18;;;5.70;;
920;SDS011;447;51.332;6.778;2023-03-01T17:17:37;9.38;;;6.47;;
920;SDS011;447;51.332;6.778;2023-03-01T17:20:03;8.68;;;6.43;;
920;SDS011;447;51.332;6.778;2023-03-01T17:22:31;10.15;;;6.93;;
920;SDS011;447;51.332;6.778;2023-03-01T17:25:00;10.07;;;6.40;;
920;SDS011;447;51.332;6.778;2023-03-01T17:27:28;10.57;;;6.65;;
920;SDS011;447;51.332;6.778;2023-03-01T17:29:59;6.60;;;5.40;;
920;SDS011;447;51.332;6.778;2023-03-01T17:32:26;7.57;;;6.30;;
920;SDS011;447;51.332;6.778;2023-03-01T17:34:54;9.68;;;6.70;;
920;SDS011;447;51.332;6.778;2023-03-01T17:37:20;8.73;;;5.97;;
920;SDS011;447;51.332;6.778;2023-03-01T17:39:46;7.67;;;6.20;;
920;SDS011;447;51.332;6.778;2023-03-01T17:42:14;13.53;;;6.30;;
920;SDS011;447;51.332;6.778;2023-03-01T17:44:42;8.57;;;6.55;;
920;SDS011;447;51.332;6.778;2023-03-01T17:47:08;10.20;;;6.57;;
920;SDS011;447;51.332;6.778;2023-03-01T17:49:35;11.07;;;7.35;;
920;SDS011;447;51.332;6.778;2023-03-01T17:52:03;9.70;;;7.00;;
920;SDS011;447;51.332;6.778;2023-03-01T17:54:31;10.85;;;6.32;;
920;SDS011;447;51.332;6.778;2023-03-01T17:57:00;9.48;;;6.93;;
920;SDS011;447;51.332;6.778;2023-03-01T17:59:28;7.57;;;6.25;;
920;SDS011;447;51.332;6.778;2023-03-01T18:01:57;10.70;;;7.10;;
920;SDS011;447;51.332;6.778;2023-03-01T18:04:26;11.00;;;6.45;;
920;SDS011;447;51.332;6.778;2023-03-01T18:06:55;8.60;;;6.85;;
920;SDS011;447;51.332;6.778;2023-03-01T18:09:22;8.85;;;6.18;;
920;SDS011;447;51.332;6.778;2023-03-01T18:11:52;9.15;;;6.22;;